createdAt,value
2017-11-21T00:02:13.902Z,5.60
2017-11-21T00:04:41.389Z,5.60
2017-11-21T00:07:08.890Z,5.60
2017-11-21T00:09:36.397Z,5.70
2017-11-21T00:12:03.894Z,5.60
2017-11-21T00:14:32.149Z,5.60
2017-11-21T00:16:59.649Z,5.60
2017-11-21T00:19:27.150Z,5.60
2017-11-21T00:21:54.651Z,5.60
2017-11-21T00:24:22.270Z,5.50
2017-11-21T00:26:49.765Z,5.50
2017-11-21T00:29:17.271Z,5.50
2017-11-21T00:31:44.857Z,5.50
2017-11-21T00:34:13.125Z,5.40
2017-11-21T00:36:40.624Z,5.40
2017-11-21T00:39:08.149Z,5.40
2017-11-21T00:41:36.416Z,5.30
2017-11-21T00:44:04.697Z,5.20
2017-11-21T00:46:32.977Z,5.20
2017-11-21T00:49:01.245Z,5.20
2017-11-21T00:51:29.517Z,5.20
2017-11-21T00:53:57.774Z,5.20
2017-11-21T00:56:25.282Z,5.20
2017-11-21T00:58:52.783Z,5.20
2017-11-21T01:01:20.293Z,5.20
2017-11-21T01:03:47.790Z,5.20
2017-11-21T01:06:15.289Z,5.20
2017-11-21T01:08:43.557Z,5.20
2017-11-21T01:11:11.848Z,5.10
2017-11-21T01:13:39.356Z,5.10
2017-11-21T01:16:06.853Z,5.10
2017-11-21T01:18:35.128Z,5.10
2017-11-21T01:21:03.395Z,5.10
2017-11-21T01:23:31.674Z,5.10
2017-11-21T01:25:59.193Z,5.10
2017-11-21T01:28:27.495Z,5.20
2017-11-21T01:30:55.772Z,5.10
2017-11-21T01:33:24.050Z,5.10
2017-11-21T01:35:52.327Z,5.10
2017-11-21T01:38:20.612Z,5.10
2017-11-21T01:40:48.117Z,5.10
2017-11-21T01:43:15.630Z,5.00
2017-11-21T01:45:43.151Z,5.00
2017-11-21T01:48:10.661Z,5.10
2017-11-21T01:50:38.172Z,5.10
2017-11-21T01:53:05.689Z,5.10
2017-11-21T01:55:33.218Z,5.10
2017-11-21T01:58:00.723Z,5.10
2017-11-21T02:00:28.215Z,5.10
2017-11-21T02:03:04.470Z,5.10
2017-11-21T02:05:32.782Z,5.10
2017-11-21T02:08:00.296Z,5.10
2017-11-21T02:10:28.564Z,5.10
2017-11-21T02:12:56.065Z,5.10
2017-11-21T02:15:23.564Z,5.10
2017-11-21T02:17:51.069Z,5.10
2017-11-21T02:20:18.577Z,5.10
2017-11-21T02:22:46.072Z,5.10
2017-11-21T02:25:14.353Z,5.20
2017-11-21T02:27:41.842Z,5.10
2017-11-21T02:30:09.359Z,5.20
2017-11-21T02:32:36.872Z,5.20
2017-11-21T02:35:04.370Z,5.20
2017-11-21T02:37:32.642Z,5.20
2017-11-21T02:40:00.906Z,5.20
2017-11-21T02:42:29.185Z,5.20
2017-11-21T02:44:57.462Z,5.20
2017-11-21T02:47:25.750Z,5.20
2017-11-21T02:49:54.012Z,5.20
2017-11-21T02:52:22.273Z,5.20
2017-11-21T02:54:49.804Z,5.20
2017-11-21T02:57:17.297Z,5.20
2017-11-21T02:59:45.567Z,5.20
2017-11-21T03:02:13.844Z,5.20
2017-11-21T03:04:42.102Z,5.20
2017-11-21T03:07:09.621Z,5.30
2017-11-21T03:09:37.129Z,5.30
2017-11-21T03:12:04.637Z,5.30
2017-11-21T03:14:32.154Z,5.30
2017-11-21T03:17:00.420Z,5.30
2017-11-21T03:19:27.938Z,5.30
2017-11-21T03:22:07.250Z,5.40
2017-11-21T03:24:46.750Z,5.40
2017-11-21T03:27:15.014Z,5.30
2017-11-21T03:29:42.534Z,5.30
2017-11-21T03:32:10.061Z,5.30
2017-11-21T03:34:37.557Z,5.30
2017-11-21T03:37:05.852Z,5.30
2017-11-21T03:39:33.351Z,5.30
2017-11-21T03:42:00.837Z,5.30
2017-11-21T03:44:28.342Z,5.30
2017-11-21T03:46:56.605Z,5.40
2017-11-21T03:49:24.122Z,5.30
2017-11-21T03:51:51.627Z,5.30
2017-11-21T03:54:19.909Z,5.40
2017-11-21T03:56:48.169Z,5.40
2017-11-21T03:59:15.683Z,5.40
2017-11-21T04:01:43.185Z,5.40
2017-11-21T04:04:10.698Z,5.40
2017-11-21T04:06:38.196Z,5.40
2017-11-21T04:09:06.482Z,5.40
2017-11-21T04:11:33.986Z,5.40
2017-11-21T04:14:02.280Z,5.40
2017-11-21T04:16:30.554Z,5.40
2017-11-21T04:18:58.826Z,5.40
2017-11-21T04:21:27.098Z,5.40
2017-11-21T04:23:55.379Z,5.40
2017-11-21T04:26:24.090Z,5.50
2017-11-21T04:28:51.621Z,5.50
2017-11-21T04:31:19.896Z,5.60
2017-11-21T04:33:47.518Z,5.50
2017-11-21T04:36:15.013Z,5.60
2017-11-21T04:38:43.288Z,5.70
2017-11-21T04:41:11.570Z,5.80
2017-11-21T04:43:39.063Z,5.70
2017-11-21T04:46:06.573Z,5.80
2017-11-21T04:48:34.828Z,5.90
2017-11-21T04:51:02.334Z,5.80
2017-11-21T04:53:29.821Z,5.90
2017-11-21T04:55:57.330Z,5.90
2017-11-21T04:58:24.837Z,5.90
2017-11-21T05:00:52.328Z,5.90
2017-11-21T05:03:20.600Z,5.90
2017-11-21T05:05:48.857Z,5.90
2017-11-21T05:08:16.354Z,5.90
2017-11-21T05:10:45.010Z,5.90
2017-11-21T05:13:12.503Z,5.90
2017-11-21T05:15:40.019Z,5.90
2017-11-21T05:18:07.507Z,5.90
2017-11-21T05:20:35.013Z,5.90
2017-11-21T05:23:02.522Z,5.90
2017-11-21T05:25:30.034Z,5.90
2017-11-21T05:27:57.649Z,6.00
2017-11-21T05:30:25.139Z,5.90
2017-11-21T05:33:04.468Z,5.90
2017-11-21T05:35:31.957Z,5.90
2017-11-21T05:38:00.237Z,5.90
2017-11-21T05:40:28.509Z,5.90
2017-11-21T05:42:56.770Z,5.90
2017-11-21T05:45:24.272Z,5.80
2017-11-21T05:47:51.768Z,5.80
2017-11-21T05:50:19.252Z,5.80
2017-11-21T05:52:47.541Z,5.70
2017-11-21T05:55:15.039Z,5.70
2017-11-21T05:57:42.660Z,5.70
2017-11-21T06:00:10.159Z,5.70
2017-11-21T06:02:37.652Z,5.70
2017-11-21T06:05:05.933Z,5.70
2017-11-21T06:07:34.213Z,5.70
2017-11-21T06:10:02.478Z,5.70
2017-11-21T06:12:30.740Z,5.70
2017-11-21T06:14:58.264Z,5.70
2017-11-21T06:17:25.757Z,5.80
2017-11-21T06:19:53.292Z,5.80
2017-11-21T06:22:20.787Z,5.80
2017-11-21T06:24:49.081Z,5.90
2017-11-21T06:27:16.564Z,5.90
2017-11-21T06:29:44.078Z,5.90
2017-11-21T06:32:12.357Z,6.00
2017-11-21T06:34:40.613Z,6.00
2017-11-21T06:37:08.909Z,6.00
2017-11-21T06:39:36.401Z,6.00
2017-11-21T06:42:03.904Z,6.00
2017-11-21T06:44:32.162Z,6.00
2017-11-21T06:46:59.680Z,6.00
2017-11-21T06:49:27.169Z,6.00
2017-11-21T06:51:54.678Z,6.00
2017-11-21T06:54:22.179Z,6.00
2017-11-21T06:56:49.694Z,6.00
2017-11-21T06:59:17.189Z,6.00
2017-11-21T07:01:45.661Z,6.00
2017-11-21T07:04:13.329Z,6.10
2017-11-21T07:06:41.042Z,6.10
2017-11-21T07:09:08.558Z,6.10
2017-11-21T07:11:36.050Z,6.10
2017-11-21T07:14:03.556Z,6.10
2017-11-21T07:16:31.047Z,6.20
2017-11-21T07:18:59.329Z,6.20
2017-11-21T07:21:27.593Z,6.20
2017-11-21T07:23:55.888Z,6.20
2017-11-21T07:26:23.429Z,6.20
2017-11-21T07:28:51.696Z,6.20
2017-11-21T07:31:19.184Z,6.10
2017-11-21T07:33:46.693Z,6.10
2017-11-21T07:36:14.210Z,6.10
2017-11-21T07:38:42.693Z,6.10
2017-11-21T07:41:10.208Z,6.10
2017-11-21T07:43:38.466Z,6.10
2017-11-21T07:46:05.956Z,6.10
2017-11-21T07:48:34.240Z,6.10
2017-11-21T07:51:01.758Z,6.10
2017-11-21T07:53:29.273Z,6.20
2017-11-21T07:55:56.759Z,6.20
2017-11-21T07:58:24.250Z,6.20
2017-11-21T08:00:52.533Z,6.20
2017-11-21T08:03:20.796Z,6.30
2017-11-21T08:05:49.071Z,6.30
2017-11-21T08:08:17.346Z,6.30
2017-11-21T08:10:45.620Z,6.30
2017-11-21T08:13:13.893Z,6.30
2017-11-21T08:15:42.169Z,6.30
2017-11-21T08:18:10.436Z,6.30
2017-11-21T08:20:38.713Z,6.30
2017-11-21T08:23:07.029Z,6.30
2017-11-21T08:25:34.516Z,6.30
2017-11-21T08:28:02.021Z,6.30
2017-11-21T08:30:29.516Z,6.30
2017-11-21T08:32:57.035Z,6.30
2017-11-21T08:35:24.526Z,6.30
2017-11-21T08:37:52.017Z,6.30
2017-11-21T08:40:20.306Z,6.30
2017-11-21T08:42:48.585Z,6.30
2017-11-21T08:45:16.861Z,6.30
2017-11-21T08:47:45.129Z,6.30
2017-11-21T08:50:13.404Z,6.40
2017-11-21T08:52:41.673Z,6.40
2017-11-21T08:55:09.162Z,6.40
2017-11-21T08:57:36.674Z,6.40
2017-11-21T09:00:04.173Z,6.40
2017-11-21T09:02:31.681Z,6.40
2017-11-21T09:04:59.178Z,6.40
2017-11-21T09:07:26.695Z,6.50
2017-11-21T09:09:54.214Z,6.50
2017-11-21T09:12:21.721Z,6.50
2017-11-21T09:14:49.230Z,6.60
2017-11-21T09:17:16.725Z,6.60
2017-11-21T09:19:44.237Z,6.70
2017-11-21T09:22:11.733Z,6.70
2017-11-21T09:24:39.254Z,6.80
2017-11-21T09:27:06.769Z,6.80
2017-11-21T09:29:34.286Z,6.90
2017-11-21T09:32:01.793Z,7.00
2017-11-21T09:34:31.578Z,7.10
2017-11-21T09:36:59.089Z,7.10
2017-11-21T09:39:26.589Z,7.20
2017-11-21T09:41:54.110Z,7.30
2017-11-21T09:44:21.638Z,7.30
2017-11-21T09:46:49.917Z,7.30
2017-11-21T09:49:17.417Z,7.30
2017-11-21T09:51:44.920Z,7.30
2017-11-21T09:54:13.186Z,7.20
2017-11-21T09:56:41.533Z,7.20
2017-11-21T09:59:09.078Z,7.20
2017-11-21T10:01:36.597Z,7.20
2017-11-21T10:04:04.106Z,7.10
2017-11-21T10:06:31.603Z,7.10
2017-11-21T10:08:59.888Z,7.10
2017-11-21T10:11:27.435Z,7.10
2017-11-21T10:13:55.709Z,7.20
2017-11-21T10:16:23.971Z,7.20
2017-11-21T10:18:52.228Z,7.20
2017-11-21T10:21:19.740Z,7.20
2017-11-21T10:23:47.225Z,7.20
2017-11-21T10:26:14.754Z,7.20
2017-11-21T10:28:42.249Z,7.20
2017-11-21T10:31:09.744Z,7.30
2017-11-21T10:33:38.018Z,7.40
2017-11-21T10:36:06.270Z,7.40
2017-11-21T10:38:33.773Z,7.40
2017-11-21T10:41:01.289Z,7.40
2017-11-21T10:43:28.796Z,7.50
2017-11-21T10:45:56.296Z,7.50
2017-11-21T10:48:23.785Z,7.60
2017-11-21T10:50:51.300Z,7.60
2017-11-21T10:53:18.849Z,7.70
2017-11-21T10:55:46.336Z,7.70
2017-11-21T10:58:14.611Z,7.80
2017-11-21T11:00:42.877Z,7.80
2017-11-21T11:03:10.394Z,7.80
2017-11-21T11:05:37.909Z,7.90
2017-11-21T11:08:06.180Z,8.00
2017-11-21T11:10:34.470Z,8.00
2017-11-21T11:13:01.965Z,8.00
2017-11-21T11:15:29.464Z,8.00
2017-11-21T11:17:57.727Z,8.20
2017-11-21T11:20:25.234Z,8.20
2017-11-21T11:22:52.720Z,8.30
2017-11-21T11:25:20.212Z,8.30
2017-11-21T11:27:48.481Z,8.40
2017-11-21T11:30:16.752Z,8.50
2017-11-21T11:32:45.031Z,8.50
2017-11-21T11:35:13.294Z,8.50
2017-11-21T11:37:40.800Z,8.50
2017-11-21T11:40:08.284Z,8.60
2017-11-21T11:42:35.785Z,8.80
2017-11-21T11:45:04.050Z,9.00
2017-11-21T11:47:32.342Z,9.10
2017-11-21T11:49:59.833Z,9.10
2017-11-21T11:52:27.320Z,9.20
2017-11-21T11:54:54.837Z,9.40
2017-11-21T11:57:22.345Z,9.70
2017-11-21T11:59:50.631Z,10.20
2017-11-21T12:02:18.138Z,10.20
2017-11-21T12:04:45.672Z,10.40
2017-11-21T12:07:13.166Z,10.60
2017-11-21T12:09:40.668Z,10.80
2017-11-21T12:12:08.201Z,10.90
2017-11-21T12:14:36.469Z,11.30
2017-11-21T12:17:03.974Z,11.30
2017-11-21T12:19:31.464Z,11.60
2017-11-21T12:22:00.679Z,11.80
2017-11-21T12:24:28.209Z,12.10
2017-11-21T12:26:55.709Z,12.20
2017-11-21T12:29:24.001Z,12.60
2017-11-21T12:31:51.517Z,12.50
2017-11-21T12:34:19.039Z,12.50
2017-11-21T12:36:46.799Z,12.20
2017-11-21T12:39:14.304Z,12.00
2017-11-21T12:41:41.808Z,11.60
2017-11-21T12:44:09.304Z,11.30
2017-11-21T12:46:36.806Z,11.10
2017-11-21T12:49:04.356Z,10.90
2017-11-21T12:51:32.617Z,10.70
2017-11-21T12:54:00.902Z,10.60
2017-11-21T12:56:29.164Z,10.80
2017-11-21T12:58:57.437Z,11.00
2017-11-21T13:01:25.708Z,11.10
2017-11-21T13:03:53.209Z,11.10
2017-11-21T13:06:21.326Z,11.10
2017-11-21T13:08:48.823Z,11.00
2017-11-21T13:11:16.333Z,11.00
2017-11-21T13:13:43.829Z,10.90
2017-11-21T13:16:11.489Z,10.80
2017-11-21T13:18:39.748Z,10.70
2017-11-21T13:21:08.014Z,10.70
2017-11-21T13:23:35.529Z,10.70
2017-11-21T13:26:03.035Z,10.70
2017-11-21T13:28:31.316Z,10.70
2017-11-21T13:30:58.841Z,10.60
2017-11-21T13:33:26.338Z,10.60
2017-11-21T13:35:54.617Z,10.60
2017-11-21T13:38:22.118Z,10.60
2017-11-21T13:40:49.613Z,10.60
2017-11-21T13:43:17.885Z,10.60
2017-11-21T13:45:45.380Z,10.60
2017-11-21T13:48:12.894Z,10.60
2017-11-21T13:50:40.390Z,10.60
2017-11-21T13:53:07.898Z,10.60
2017-11-21T13:55:35.397Z,10.60
2017-11-21T13:58:02.931Z,10.50
2017-11-21T14:00:31.195Z,10.40
2017-11-21T14:02:58.711Z,10.40
2017-11-21T14:05:26.232Z,10.40
2017-11-21T14:07:53.739Z,10.30
2017-11-21T14:10:21.257Z,10.20
2017-11-21T14:12:48.762Z,10.20
2017-11-21T14:15:16.270Z,10.20
2017-11-21T14:17:43.779Z,10.20
2017-11-21T14:20:11.284Z,10.10
2017-11-21T14:22:38.793Z,10.10
2017-11-21T14:25:06.293Z,10.20
2017-11-21T14:27:33.813Z,10.20
2017-11-21T14:30:01.320Z,10.10
2017-11-21T14:32:28.811Z,10.00
2017-11-21T14:34:56.327Z,10.00
2017-11-21T14:37:23.833Z,10.00
2017-11-21T14:39:51.328Z,10.00
2017-11-21T14:42:18.854Z,10.10
2017-11-21T14:44:46.350Z,10.10
2017-11-21T14:47:13.850Z,10.10
2017-11-21T14:49:41.360Z,10.10
2017-11-21T14:52:08.852Z,10.00
2017-11-21T14:54:36.389Z,9.90
2017-11-21T14:57:03.886Z,9.90
2017-11-21T14:59:31.381Z,9.90
2017-11-21T15:01:58.896Z,9.80
2017-11-21T15:04:26.403Z,9.80
2017-11-21T15:06:53.903Z,9.70
2017-11-21T15:09:21.406Z,9.70
2017-11-21T15:11:49.686Z,9.70
2017-11-21T15:14:17.208Z,9.70
2017-11-21T15:16:44.726Z,9.70
2017-11-21T15:19:12.233Z,9.70
2017-11-21T15:21:40.498Z,9.60
2017-11-21T15:24:08.016Z,9.60
2017-11-21T15:26:35.509Z,9.60
2017-11-21T15:29:03.000Z,9.60
2017-11-21T15:31:30.509Z,9.50
2017-11-21T15:33:58.014Z,9.50
2017-11-21T15:36:25.523Z,9.40
2017-11-21T15:38:53.038Z,9.40
2017-11-21T15:41:20.533Z,9.30
2017-11-21T15:43:48.052Z,9.30
2017-11-21T15:46:15.541Z,9.30
2017-11-21T15:48:43.033Z,9.20
2017-11-21T15:51:11.334Z,9.10
2017-11-21T15:53:38.853Z,9.10
2017-11-21T15:56:06.362Z,9.10
2017-11-21T15:58:33.860Z,9.00
2017-11-21T16:01:01.373Z,9.00
2017-11-21T16:03:28.872Z,8.90
2017-11-21T16:05:57.152Z,8.90
2017-11-21T16:08:24.652Z,8.90
2017-11-21T16:10:52.136Z,8.90
2017-11-21T16:13:19.646Z,9.00
2017-11-21T16:15:47.915Z,9.00
2017-11-21T16:18:16.185Z,9.00
2017-11-21T16:20:44.460Z,9.10
2017-11-21T16:23:12.729Z,9.00
2017-11-21T16:25:40.233Z,9.10
2017-11-21T16:28:07.717Z,9.10
2017-11-21T16:30:35.227Z,9.10
2017-11-21T16:33:02.716Z,9.10
2017-11-21T16:35:30.228Z,9.10
2017-11-21T16:37:58.613Z,9.00
2017-11-21T16:40:26.135Z,9.00
2017-11-21T16:42:54.424Z,9.00
2017-11-21T16:45:21.933Z,9.00
2017-11-21T16:47:49.448Z,9.00
2017-11-21T16:50:17.716Z,9.00
2017-11-21T16:52:45.977Z,9.00
2017-11-21T16:55:13.500Z,9.00
2017-11-21T16:57:40.989Z,9.00
2017-11-21T17:00:08.527Z,9.00
2017-11-21T17:02:36.043Z,9.00
2017-11-21T17:05:03.545Z,9.00
2017-11-21T17:07:31.090Z,8.90
2017-11-21T17:09:59.352Z,8.90
2017-11-21T17:12:26.853Z,8.90
2017-11-21T17:14:54.394Z,8.90
2017-11-21T17:17:21.885Z,8.90
2017-11-21T17:19:50.190Z,8.80
2017-11-21T17:22:17.775Z,8.80
2017-11-21T17:24:45.278Z,8.80
2017-11-21T17:27:13.572Z,8.80
2017-11-21T17:29:41.073Z,8.80
2017-11-21T17:32:08.576Z,8.80
2017-11-21T17:34:36.104Z,8.80
2017-11-21T17:37:03.615Z,8.80
2017-11-21T17:39:31.123Z,8.80
2017-11-21T17:41:58.696Z,8.80
2017-11-21T17:44:26.951Z,8.80
2017-11-21T17:46:54.476Z,8.80
2017-11-21T17:49:22.014Z,8.80
2017-11-21T17:51:49.549Z,8.80
2017-11-21T17:54:17.110Z,8.80
2017-11-21T17:56:44.624Z,8.80
2017-11-21T17:59:12.115Z,8.80
2017-11-21T18:01:44.773Z,8.80
2017-11-21T18:04:12.898Z,8.80
2017-11-21T18:06:40.409Z,8.80
2017-11-21T18:09:07.953Z,8.80
2017-11-21T18:11:36.222Z,8.80
2017-11-21T18:14:04.521Z,8.70
2017-11-21T18:16:32.012Z,8.70
2017-11-21T18:18:59.509Z,8.70
2017-11-21T18:21:27.033Z,8.70
2017-11-21T18:23:54.521Z,8.70
2017-11-21T18:26:22.057Z,8.70
2017-11-21T18:28:49.617Z,8.70
2017-11-21T18:31:17.105Z,8.70
2017-11-21T18:33:45.388Z,8.70
2017-11-21T18:36:12.884Z,8.70
2017-11-21T18:38:40.383Z,8.70
2017-11-21T18:41:08.673Z,8.60
2017-11-21T18:43:36.173Z,8.60
2017-11-21T18:46:03.687Z,8.60
2017-11-21T18:48:31.172Z,8.60
2017-11-21T18:50:58.689Z,8.60
2017-11-21T18:53:26.962Z,8.60
2017-11-21T18:55:54.512Z,8.60
2017-11-21T18:58:22.774Z,8.70
2017-11-21T19:00:50.298Z,8.70
2017-11-21T19:03:17.787Z,8.70
2017-11-21T19:05:45.339Z,8.70
2017-11-21T19:08:12.832Z,8.70
2017-11-21T19:10:41.121Z,8.70
2017-11-21T19:13:08.877Z,8.70
2017-11-21T19:15:36.381Z,8.70
2017-11-21T19:18:03.907Z,8.70
2017-11-21T19:20:31.406Z,8.70
2017-11-21T19:22:59.745Z,8.70
2017-11-21T19:25:27.253Z,8.80
2017-11-21T19:27:55.661Z,8.80
2017-11-21T19:30:23.560Z,8.80
2017-11-21T19:32:51.082Z,8.80
2017-11-21T19:35:18.630Z,8.80
2017-11-21T19:37:46.206Z,8.80
2017-11-21T19:40:13.708Z,8.80
2017-11-21T19:42:42.075Z,8.70
2017-11-21T19:45:09.612Z,8.70
2017-11-21T19:47:37.145Z,8.70
2017-11-21T19:50:04.992Z,8.70
2017-11-21T19:52:33.253Z,8.70
2017-11-21T19:55:00.841Z,8.60
2017-11-21T19:57:28.480Z,8.60
2017-11-21T19:59:56.066Z,8.60
2017-11-21T20:02:23.703Z,8.60
2017-11-21T20:04:51.253Z,8.60
2017-11-21T20:07:19.857Z,8.50
2017-11-21T20:09:47.402Z,8.50
2017-11-21T20:15:08.329Z,8.50
2017-11-21T20:17:37.118Z,8.50
2017-11-21T20:20:05.438Z,8.40
2017-11-21T20:22:33.015Z,8.40
2017-11-21T20:25:00.572Z,8.40
2017-11-21T20:27:28.103Z,8.40
2017-11-21T20:29:55.625Z,8.30
2017-11-21T20:32:23.899Z,8.30
2017-11-21T20:34:52.234Z,8.30
2017-11-21T20:43:02.047Z,8.40
2017-11-21T20:45:29.532Z,8.40
2017-11-21T20:47:57.084Z,8.40
2017-11-21T20:50:25.373Z,8.50
2017-11-21T20:52:53.012Z,8.50
2017-11-21T20:55:20.563Z,8.50
2017-11-21T20:57:48.842Z,8.50
2017-11-21T21:00:19.816Z,8.50
2017-11-21T21:02:47.345Z,8.50
2017-11-21T21:05:14.841Z,8.50
2017-11-21T21:07:42.363Z,8.50
2017-11-21T21:10:09.889Z,8.50
2017-11-21T21:12:37.396Z,8.50
2017-11-21T21:15:04.941Z,8.50
2017-11-21T21:17:32.433Z,8.50
2017-11-21T21:19:59.929Z,8.50
2017-11-21T21:22:28.208Z,8.50
2017-11-21T21:24:56.504Z,8.50
2017-11-21T21:27:35.826Z,8.40
2017-11-21T21:30:04.121Z,8.50
2017-11-21T21:32:31.693Z,8.50
2017-11-21T21:34:59.188Z,8.50
2017-11-21T21:37:26.672Z,8.40
2017-11-21T21:39:54.963Z,8.40
2017-11-21T21:42:22.494Z,8.40
2017-11-21T21:44:49.996Z,8.40
2017-11-21T21:47:17.505Z,8.40
2017-11-21T21:49:45.796Z,8.30
2017-11-21T21:52:13.320Z,8.30
2017-11-21T21:54:40.838Z,8.20
2017-11-21T21:57:08.367Z,8.20
2017-11-21T21:59:35.869Z,8.20
2017-11-21T22:02:03.389Z,8.20
2017-11-21T22:04:30.904Z,8.20
2017-11-21T22:06:58.430Z,8.20
2017-11-21T22:09:25.957Z,8.20
2017-11-21T22:11:53.449Z,8.20
2017-11-21T22:14:20.975Z,8.20
2017-11-21T22:16:48.462Z,8.20
2017-11-21T22:19:15.950Z,8.20
2017-11-21T22:21:43.473Z,8.20
2017-11-21T22:24:10.956Z,8.20
2017-11-21T22:26:38.485Z,8.10
2017-11-21T22:29:06.013Z,8.10
2017-11-21T22:31:33.509Z,8.10
2017-11-21T22:34:01.004Z,8.20
2017-11-21T22:36:29.408Z,8.30
2017-11-21T22:38:56.892Z,8.30
2017-11-21T22:41:24.381Z,8.30
2017-11-21T22:43:51.917Z,8.30
2017-11-21T22:46:19.448Z,8.30
2017-11-21T22:48:46.976Z,8.30
2017-11-21T22:51:14.491Z,8.30
2017-11-21T22:53:41.980Z,8.30
2017-11-21T22:56:10.284Z,8.30
2017-11-21T22:58:37.808Z,8.30
2017-11-21T23:01:06.066Z,8.30
2017-11-21T23:03:33.567Z,8.30
2017-11-21T23:06:01.066Z,8.30
2017-11-21T23:08:28.584Z,8.30
2017-11-21T23:10:56.081Z,8.30
2017-11-21T23:13:23.575Z,8.20
2017-11-21T23:15:51.866Z,8.00
2017-11-21T23:18:19.349Z,8.00
2017-11-21T23:20:46.841Z,7.90
2017-11-21T23:23:14.350Z,7.80
2017-11-21T23:25:41.840Z,7.70
2017-11-21T23:28:09.327Z,7.70
2017-11-21T23:30:37.609Z,7.70
2017-11-21T23:33:05.863Z,7.70
2017-11-21T23:35:33.365Z,7.70
2017-11-21T23:38:00.884Z,7.70
2017-11-21T23:40:28.364Z,7.60
2017-11-21T23:42:55.848Z,7.60
2017-11-21T23:45:23.356Z,7.50
2017-11-21T23:47:50.850Z,7.50
2017-11-21T23:50:18.343Z,7.40
2017-11-21T23:52:45.877Z,7.50
2017-11-21T23:55:13.373Z,7.60
2017-11-21T23:57:40.874Z,7.70
